Time;durP1;ratioP1;P1;durP2;ratioP2;P2;SDS_P1;SDS_P2;PMS_P1;PMS_P2;Temp;Humidity;BMP_temperature;BMP_pressure;BME280_temperature;BME280_humidity;BME280_pressure;Samples;Min_cycle;Max_cycle;Signal;HPM_P1;HPM_P2
2024/02/15 00:02:04;;;;;;;2.47;1.73;;;12.60;77.60;;;;;;5024382;28;20237;-72
2024/02/15 00:04:31;;;;;;;3.70;1.50;;;12.60;77.70;;;;;;5027085;28;20436;-73
2024/02/15 00:06:56;;;;;;;3.27;1.60;;;12.60;77.70;;;;;;5034449;28;20423;-73
2024/02/15 00:09:22;;;;;;;3.70;1.70;;;12.60;77.60;;;;;;5030404;28;20511;-72
2024/02/15 00:11:47;;;;;;;4.10;1.67;;;12.60;77.60;;;;;;5023709;28;20213;-72
2024/02/15 00:14:13;;;;;;;3.80;1.60;;;12.60;77.40;;;;;;5028396;28;20193;-73
2024/02/15 00:16:39;;;;;;;4.23;2.00;;;12.60;77.40;;;;;;5027236;28;20318;-72
2024/02/15 00:19:06;;;;;;;4.17;1.97;;;12.60;77.40;;;;;;5029131;28;20259;-73
2024/02/15 00:21:32;;;;;;;3.20;1.70;;;12.60;77.80;;;;;;5028586;28;20267;-72
2024/02/15 00:23:59;;;;;;;7.07;1.83;;;12.60;77.60;;;;;;5026804;28;20547;-72
2024/02/15 00:26:25;;;;;;;2.73;1.80;;;12.60;77.60;;;;;;5031444;28;20210;-73
2024/02/15 00:28:51;;;;;;;5.90;1.60;;;12.60;77.40;;;;;;5028542;28;20408;-72
2024/02/15 00:31:17;;;;;;;6.70;1.80;;;12.60;77.60;;;;;;5025553;28;20456;-72
2024/02/15 00:33:42;;;;;;;3.30;1.50;;;12.60;77.40;;;;;;5021257;28;20208;-73
2024/02/15 00:36:08;;;;;;;7.00;1.97;;;12.70;77.30;;;;;;5028469;28;20896;-72
2024/02/15 00:38:34;;;;;;;2.93;1.70;;;12.60;77.10;;;;;;5028638;28;20582;-73
2024/02/15 00:41:00;;;;;;;3.17;1.40;;;12.70;77.00;;;;;;5025337;28;20228;-72
2024/02/15 00:43:28;;;;;;;2.80;1.43;;;12.70;76.80;;;;;;5022171;28;20434;-72
2024/02/15 00:45:54;;;;;;;2.77;1.50;;;12.70;76.80;;;;;;5024203;28;20182;-71
2024/02/15 00:48:20;;;;;;;4.33;2.10;;;12.80;76.70;;;;;;5026932;28;20426;-72
2024/02/15 00:50:45;;;;;;;3.77;1.97;;;12.80;76.50;;;;;;5021790;28;20211;-72
2024/02/15 00:53:11;;;;;;;6.60;1.70;;;12.80;76.50;;;;;;5019935;28;20181;-72
2024/02/15 00:55:36;;;;;;;2.80;2.00;;;12.80;76.40;;;;;;5029529;28;20181;-72
2024/02/15 00:58:02;;;;;;;3.90;1.60;;;12.80;76.40;;;;;;5030831;28;20703;-71
2024/02/15 01:00:28;;;;;;;2.53;1.70;;;12.90;76.20;;;;;;5024515;28;20225;-74
2024/02/15 01:02:55;;;;;;;4.47;1.97;;;12.80;76.20;;;;;;5023516;28;20830;-73
2024/02/15 01:05:21;;;;;;;4.30;1.67;;;12.70;76.40;;;;;;5029380;28;20712;-71
2024/02/15 01:07:48;;;;;;;3.57;1.70;;;12.80;76.50;;;;;;5030027;28;20412;-71
2024/02/15 01:10:14;;;;;;;2.80;1.90;;;12.70;76.40;;;;;;5027210;28;20423;-72
2024/02/15 01:12:40;;;;;;;7.17;2.20;;;12.70;76.40;;;;;;5025837;28;20431;-71
2024/02/15 01:15:06;;;;;;;2.10;1.50;;;12.70;76.10;;;;;;5029898;28;20424;-72
2024/02/15 01:17:31;;;;;;;3.70;1.50;;;12.70;76.20;;;;;;5029695;28;20210;-72
2024/02/15 01:19:57;;;;;;;4.17;1.80;;;12.70;76.10;;;;;;5029070;28;20224;-72
2024/02/15 01:22:24;;;;;;;2.60;1.90;;;12.70;76.10;;;;;;5022442;28;20212;-72
2024/02/15 01:24:50;;;;;;;4.17;2.20;;;12.60;76.40;;;;;;5028459;28;20639;-72
2024/02/15 01:27:16;;;;;;;5.83;2.30;;;12.60;76.40;;;;;;5029410;28;20518;-73
2024/02/15 01:29:42;;;;;;;3.37;2.00;;;12.60;76.50;;;;;;5029430;28;20185;-72
2024/02/15 01:32:08;;;;;;;4.33;2.27;;;12.50;76.80;;;;;;5026430;28;20960;-72
2024/02/15 01:34:33;;;;;;;4.90;2.30;;;12.40;77.40;;;;;;5020207;28;20196;-71
2024/02/15 01:37:00;;;;;;;4.30;2.33;;;12.30;77.60;;;;;;5030425;28;20205;-72
2024/02/15 01:39:25;;;;;;;3.73;2.40;;;12.20;77.80;;;;;;5029720;28;20262;-73
2024/02/15 01:41:51;;;;;;;3.23;1.93;;;12.20;78.30;;;;;;5024438;28;20999;-72
2024/02/15 01:44:20;;;;;;;3.40;1.87;;;12.10;78.30;;;;;;5022314;28;20209;-73
2024/02/15 01:46:47;;;;;;;3.60;1.80;;;12.10;78.40;;;;;;5029364;28;20292;-73
2024/02/15 01:49:13;;;;;;;3.00;1.87;;;12.00;78.60;;;;;;5029180;28;20424;-73
2024/02/15 01:51:43;;;;;;;3.70;2.07;;;12.00;78.70;;;;;;5024512;28;20517;-72
2024/02/15 01:54:09;;;;;;;6.50;2.40;;;11.90;79.00;;;;;;5020756;28;20417;-71
2024/02/15 01:56:36;;;;;;;3.10;1.80;;;11.80;79.20;;;;;;5024701;28;20417;-72
2024/02/15 01:59:02;;;;;;;4.20;2.30;;;11.80;79.30;;;;;;5029615;28;20787;-72
2024/02/15 02:01:32;;;;;;;2.93;1.90;;;11.70;79.50;;;;;;5026634;28;20490;-71
2024/02/15 02:03:58;;;;;;;3.23;1.87;;;11.70;79.50;;;;;;5017961;28;20906;-72
2024/02/15 02:06:24;;;;;;;4.70;2.23;;;11.70;79.50;;;;;;5029326;28;20901;-72
2024/02/15 02:08:50;;;;;;;2.00;1.50;;;11.70;79.20;;;;;;5029407;28;21077;-72
2024/02/15 02:11:15;;;;;;;2.63;1.70;;;11.80;79.50;;;;;;5018862;28;20543;-72
2024/02/15 02:13:41;;;;;;;4.40;1.97;;;11.70;79.30;;;;;;5021399;28;20672;-72
2024/02/15 02:16:31;;;;;;;4.70;1.90;;;11.80;79.20;;;;;;5028832;28;20196;-72
2024/02/15 02:18:58;;;;;;;4.23;1.90;;;11.80;79.00;;;;;;5028611;28;20182;-71
2024/02/15 02:21:28;;;;;;;3.00;1.53;;;11.70;79.30;;;;;;5018705;28;20993;-72
2024/02/15 02:23:56;;;;;;;3.17;2.00;;;11.80;79.00;;;;;;5016477;28;20467;-72
2024/02/15 02:26:22;;;;;;;4.60;2.10;;;11.70;79.00;;;;;;5022219;28;20427;-72
2024/02/15 02:28:49;;;;;;;3.50;2.20;;;11.70;79.00;;;;;;5029180;28;20463;-72
2024/02/15 02:31:15;;;;;;;3.67;1.63;;;11.70;79.00;;;;;;5020056;28;20464;-72
2024/02/15 02:33:42;;;;;;;3.60;1.97;;;11.60;79.00;;;;;;5025967;28;20450;-74
2024/02/15 02:36:10;;;;;;;3.30;1.80;;;11.50;79.30;;;;;;5028900;28;20205;-74
2024/02/15 02:38:37;;;;;;;3.03;2.00;;;11.50;79.30;;;;;;5029561;28;20422;-71
2024/02/15 02:41:04;;;;;;;2.70;1.50;;;11.50;79.30;;;;;;5023825;28;20670;-73
2024/02/15 02:43:29;;;;;;;3.33;1.90;;;11.50;79.50;;;;;;5025139;28;20456;-73
2024/02/15 02:45:55;;;;;;;3.53;2.40;;;11.50;79.50;;;;;;5028405;28;20447;-73
2024/02/15 02:48:21;;;;;;;5.53;2.00;;;11.40;79.30;;;;;;5029108;28;20558;-73
2024/02/15 02:50:50;;;;;;;6.33;2.33;;;11.30;79.70;;;;;;5021573;28;20255;-72
2024/02/15 02:53:15;;;;;;;3.03;1.70;;;11.20;80.00;;;;;;5024489;28;20197;-72
2024/02/15 02:55:42;;;;;;;3.90;1.73;;;11.20;80.30;;;;;;5027245;28;20421;-73
2024/02/15 02:58:08;;;;;;;4.83;2.03;;;11.30;79.90;;;;;;5028383;28;20517;-72
2024/02/15 03:00:34;;;;;;;3.57;2.10;;;11.20;80.20;;;;;;5028378;28;20482;-74
2024/02/15 03:03:00;;;;;;;4.57;2.00;;;11.10;80.30;;;;;;5028665;28;20198;-71
2024/02/15 03:05:26;;;;;;;6.23;2.37;;;11.00;80.60;;;;;;5026166;28;20424;-72
2024/02/15 03:07:52;;;;;;;3.50;1.90;;;11.10;80.60;;;;;;5026747;28;20436;-71
2024/02/15 03:10:18;;;;;;;3.10;2.17;;;11.10;80.60;;;;;;5028509;28;20419;-71
2024/02/15 03:12:47;;;;;;;5.13;2.00;;;11.10;80.30;;;;;;5029957;28;20196;-73
2024/02/15 03:15:13;;;;;;;5.67;2.90;;;11.00;80.60;;;;;;5025912;28;20177;-73
2024/02/15 03:17:43;;;;;;;5.00;2.67;;;10.90;80.60;;;;;;5031939;28;21174;-72
2024/02/15 03:20:20;;;;;;;4.73;2.20;;;10.70;81.40;;;;;;5029178;28;20426;-75
2024/02/15 03:22:59;;;;;;;6.63;2.33;;;10.70;81.70;;;;;;5017762;28;20458;-74
2024/02/15 03:25:26;;;;;;;11.40;2.73;;;10.60;81.90;;;;;;5031342;28;20428;-73
2024/02/15 03:27:52;;;;;;;3.67;2.57;;;10.50;82.10;;;;;;5031924;28;20929;-72
2024/02/15 03:30:19;;;;;;;5.27;3.50;;;10.40;82.20;;;;;;5028607;28;20423;-73
2024/02/15 03:32:48;;;;;;;3.20;2.30;;;10.40;82.70;;;;;;5021981;28;20802;-73
2024/02/15 03:35:14;;;;;;;4.17;2.13;;;10.30;82.80;;;;;;5032229;28;20423;-72
2024/02/15 03:37:41;;;;;;;4.40;2.50;;;10.30;83.10;;;;;;5032109;28;20420;-72
2024/02/15 03:40:08;;;;;;;12.23;3.00;;;10.20;83.10;;;;;;5033602;28;20434;-73
2024/02/15 03:42:36;;;;;;;3.70;2.50;;;10.20;83.30;;;;;;5026516;28;20455;-72
2024/02/15 03:45:03;;;;;;;3.33;2.30;;;10.20;83.40;;;;;;5030676;28;20440;-74
2024/02/15 03:47:29;;;;;;;3.23;2.13;;;10.30;83.10;;;;;;5031700;28;21093;-72
2024/02/15 03:49:55;;;;;;;4.40;2.73;;;10.20;83.00;;;;;;5030966;28;20420;-72
2024/02/15 03:52:21;;;;;;;5.20;2.80;;;10.10;83.10;;;;;;5022817;28;20301;-72
2024/02/15 03:54:47;;;;;;;8.03;2.40;;;10.10;83.30;;;;;;5029937;28;20419;-71
2024/02/15 03:57:13;;;;;;;3.83;2.17;;;10.10;83.40;;;;;;5025408;28;20420;-73
2024/02/15 03:59:40;;;;;;;4.77;2.70;;;10.20;83.30;;;;;;5031290;28;20200;-73
2024/02/15 04:02:12;;;;;;;4.70;2.30;;;10.10;83.30;;;;;;5026098;28;20333;-72
2024/02/15 04:04:41;;;;;;;3.40;2.20;;;10.10;83.40;;;;;;5027897;28;20432;-73
2024/02/15 04:07:07;;;;;;;3.87;2.50;;;10.20;83.30;;;;;;5030998;28;20932;-73
2024/02/15 04:09:35;;;;;;;4.60;1.90;;;10.20;83.30;;;;;;5030808;28;20412;-73
2024/02/15 04:12:01;;;;;;;5.07;2.10;;;10.30;83.10;;;;;;5024938;28;20250;-72
2024/02/15 04:14:27;;;;;;;3.90;2.20;;;10.30;83.00;;;;;;5021655;28;21060;-71
2024/02/15 04:16:53;;;;;;;4.90;2.20;;;10.30;82.80;;;;;;5029339;28;20426;-72
2024/02/15 04:19:19;;;;;;;4.60;2.57;;;10.40;82.80;;;;;;5030528;28;20967;-72
2024/02/15 04:21:47;;;;;;;4.20;2.40;;;10.40;82.50;;;;;;5023633;28;20245;-72
2024/02/15 04:24:12;;;;;;;8.33;3.13;;;10.30;82.70;;;;;;5020728;28;20437;-71
2024/02/15 04:26:38;;;;;;;4.70;2.33;;;10.40;82.40;;;;;;5031065;28;20923;-73
2024/02/15 04:29:04;;;;;;;5.67;2.80;;;10.50;82.20;;;;;;5030479;28;20189;-74
2024/02/15 04:31:31;;;;;;;11.03;2.87;;;10.50;82.10;;;;;;5027506;28;20678;-72
2024/02/15 04:33:56;;;;;;;4.17;2.33;;;10.50;82.20;;;;;;5021986;28;20182;-71
2024/02/15 04:36:26;;;;;;;5.00;2.60;;;10.50;82.20;;;;;;5030804;28;20432;-72
2024/02/15 04:38:52;;;;;;;8.00;2.23;;;10.60;82.10;;;;;;5030135;28;20209;-72
2024/02/15 04:41:23;;;;;;;5.60;2.47;;;10.70;82.10;;;;;;5026638;28;20515;-72
2024/02/15 04:43:52;;;;;;;6.13;2.73;;;10.80;81.70;;;;;;5021849;28;20432;-72
2024/02/15 04:46:21;;;;;;;6.97;3.00;;;10.70;81.20;;;;;;5032580;28;20555;-73
2024/02/15 04:48:49;;;;;;;4.27;2.50;;;10.70;81.40;;;;;;5032701;28;20921;-71
2024/02/15 04:51:19;;;;;;;2.93;1.70;;;10.80;81.40;;;;;;5027463;28;20952;-73
2024/02/15 04:53:46;;;;;;;4.47;2.93;;;10.80;81.40;;;;;;5024845;28;20486;-74
2024/02/15 04:56:16;;;;;;;12.63;3.23;;;10.80;80.90;;;;;;5029535;28;20992;-73
2024/02/15 04:58:45;;;;;;;4.70;2.30;;;10.80;81.10;;;;;;5027037;28;20425;-72
2024/02/15 05:01:16;;;;;;;3.83;2.60;;;10.80;80.90;;;;;;5020144;28;20476;-73
2024/02/15 05:03:43;;;;;;;5.57;2.60;;;10.70;80.90;;;;;;5025394;28;20480;-73
2024/02/15 05:06:10;;;;;;;4.03;2.50;;;10.80;81.20;;;;;;5028756;28;20427;-72
2024/02/15 05:08:42;;;;;;;5.40;2.73;;;10.90;80.90;;;;;;5029582;28;20546;-72
2024/02/15 05:11:14;;;;;;;3.37;2.30;;;10.90;80.80;;;;;;5021764;28;20460;-72
2024/02/15 05:13:40;;;;;;;3.83;2.10;;;11.00;80.50;;;;;;5024901;28;20417;-73
2024/02/15 05:16:06;;;;;;;5.57;2.77;;;10.90;80.30;;;;;;5026445;28;20424;-72
2024/02/15 05:18:34;;;;;;;5.80;2.83;;;10.90;80.50;;;;;;5028477;28;20192;-73
2024/02/15 05:21:01;;;;;;;5.03;2.80;;;10.90;80.30;;;;;;5020754;28;20500;-72
2024/02/15 05:23:27;;;;;;;5.33;2.87;;;10.80;80.30;;;;;;5022119;28;20507;-72
2024/02/15 05:25:54;;;;;;;7.07;3.20;;;10.80;80.50;;;;;;5020116;28;20498;-72
2024/02/15 05:28:26;;;;;;;4.70;2.73;;;11.00;80.50;;;;;;5029369;28;20627;-71
2024/02/15 05:31:12;;;;;;;3.13;2.10;;;11.00;79.90;;;;;;5026092;28;20459;-73
2024/02/15 05:33:43;;;;;;;3.90;2.50;;;11.20;79.50;;;;;;5025467;28;20450;-72
2024/02/15 05:36:10;;;;;;;3.97;2.00;;;11.20;78.60;;;;;;5023554;28;20424;-73
2024/02/15 05:38:36;;;;;;;6.80;2.30;;;11.20;78.30;;;;;;5026912;28;20844;-72
2024/02/15 05:41:02;;;;;;;3.03;1.87;;;11.20;78.10;;;;;;5025410;28;20471;-72
2024/02/15 05:43:28;;;;;;;5.20;2.63;;;11.30;77.70;;;;;;5020318;28;20781;-72
2024/02/15 05:45:54;;;;;;;3.83;2.13;;;11.30;77.40;;;;;;5029395;28;20498;-71
2024/02/15 05:48:21;;;;;;;4.33;2.20;;;11.30;77.40;;;;;;5028079;28;20200;-72
2024/02/15 05:50:47;;;;;;;7.43;2.20;;;11.30;77.60;;;;;;5024991;28;20213;-73
2024/02/15 05:53:12;;;;;;;2.30;2.00;;;11.30;77.40;;;;;;5025068;28;20423;-72
2024/02/15 05:55:40;;;;;;;3.97;2.10;;;11.30;77.60;;;;;;5030207;28;20174;-72
2024/02/15 05:58:09;;;;;;;6.33;2.17;;;11.20;77.60;;;;;;5029938;28;20201;-73
2024/02/15 06:00:35;;;;;;;4.13;2.40;;;11.20;77.60;;;;;;5025510;28;20497;-73
2024/02/15 06:03:02;;;;;;;4.87;2.27;;;11.30;77.70;;;;;;5016150;28;20956;-73
2024/02/15 06:05:27;;;;;;;3.03;2.20;;;11.20;77.60;;;;;;5025305;28;20189;-74
2024/02/15 06:07:53;;;;;;;6.83;2.07;;;11.30;77.60;;;;;;5029175;28;20430;-73
2024/02/15 06:10:19;;;;;;;6.63;2.00;;;11.20;77.40;;;;;;5024293;28;20196;-72
2024/02/15 06:12:44;;;;;;;6.50;2.63;;;11.20;77.70;;;;;;5019826;28;20696;-72
2024/02/15 06:15:14;;;;;;;6.77;2.60;;;11.20;77.30;;;;;;5028900;28;20234;-73
2024/02/15 06:17:43;;;;;;;5.67;2.53;;;11.10;77.40;;;;;;5044580;28;20213;-73
2024/02/15 06:20:19;;;;;;;6.13;2.37;;;11.10;77.40;;;;;;5023654;28;20988;-76
2024/02/15 06:22:46;;;;;;;3.30;2.07;;;11.10;77.30;;;;;;5019463;28;20438;-73
2024/02/15 06:25:13;;;;;;;6.80;2.77;;;11.10;77.30;;;;;;5030654;28;20418;-72
2024/02/15 06:27:42;;;;;;;4.90;3.57;;;11.20;77.00;;;;;;5026915;28;20807;-75
2024/02/15 06:41:09;;;;;;;4.10;2.60;;;11.20;76.50;;;;;;5028856;28;20562;-73
2024/02/15 06:43:35;;;;;;;4.63;2.30;;;11.10;76.40;;;;;;5025384;28;20504;-75
2024/02/15 06:46:02;;;;;;;3.17;2.23;;;11.10;76.70;;;;;;5031887;28;20182;-73
2024/02/15 06:48:28;;;;;;;3.77;2.17;;;11.10;76.50;;;;;;5033826;28;20427;-73
2024/02/15 06:50:54;;;;;;;5.37;2.70;;;11.00;76.80;;;;;;5028136;28;20501;-73
2024/02/15 06:53:20;;;;;;;5.30;2.30;;;11.00;77.10;;;;;;5034460;28;21270;-73
2024/02/15 06:55:48;;;;;;;6.17;2.60;;;10.90;77.10;;;;;;5033070;28;20185;-73
2024/02/15 06:58:16;;;;;;;6.83;2.60;;;10.90;77.30;;;;;;5033668;28;20473;-72
2024/02/15 07:00:42;;;;;;;3.20;2.10;;;10.90;77.10;;;;;;5032650;28;20849;-74
2024/02/15 07:03:08;;;;;;;5.30;2.50;;;10.90;77.10;;;;;;5028452;28;20440;-73
2024/02/15 07:05:34;;;;;;;6.77;2.50;;;10.90;77.30;;;;;;5028087;28;20427;-74
2024/02/15 07:08:01;;;;;;;4.37;2.47;;;10.80;77.40;;;;;;5032220;28;20423;-72
2024/02/15 07:10:26;;;;;;;7.03;3.30;;;10.80;77.40;;;;;;5027725;28;20456;-73
2024/02/15 07:12:52;;;;;;;4.43;2.47;;;10.90;77.40;;;;;;5025085;28;20416;-72
2024/02/15 07:15:18;;;;;;;3.60;2.50;;;10.90;77.30;;;;;;5028786;28;20210;-72
2024/02/15 07:17:43;;;;;;;4.20;2.77;;;10.90;77.30;;;;;;5025870;28;20568;-72
2024/02/15 07:20:14;;;;;;;5.80;3.20;;;11.00;77.30;;;;;;5030683;28;20189;-72
2024/02/15 07:22:39;;;;;;;2.90;2.20;;;10.90;77.30;;;;;;5019681;28;20190;-72
2024/02/15 07:25:05;;;;;;;8.90;3.30;;;10.90;77.10;;;;;;5031325;28;20524;-72
2024/02/15 07:27:32;;;;;;;4.10;2.23;;;10.90;77.30;;;;;;5032284;28;20634;-73
2024/02/15 07:29:58;;;;;;;3.97;2.30;;;10.90;77.00;;;;;;5035353;28;20189;-71
2024/02/15 07:32:23;;;;;;;7.40;2.87;;;10.90;77.00;;;;;;5025410;28;20494;-72
2024/02/15 07:34:49;;;;;;;9.20;2.17;;;11.00;77.00;;;;;;5030489;28;20239;-71
2024/02/15 07:37:15;;;;;;;5.63;2.87;;;11.00;76.80;;;;;;5031873;28;20185;-72
2024/02/15 07:39:41;;;;;;;8.57;3.13;;;11.00;76.80;;;;;;5031076;28;20181;-73
2024/02/15 07:42:08;;;;;;;5.67;3.03;;;11.00;76.80;;;;;;5026517;28;20525;-71
2024/02/15 07:44:36;;;;;;;4.70;2.37;;;11.00;77.00;;;;;;5030508;28;20187;-72
2024/02/15 07:47:04;;;;;;;4.60;2.80;;;11.20;76.50;;;;;;5031877;28;20503;-72
2024/02/15 07:49:30;;;;;;;6.40;2.87;;;11.30;76.40;;;;;;5031868;28;20428;-72
2024/02/15 07:51:55;;;;;;;6.57;4.00;;;11.40;75.90;;;;;;5022782;28;20473;-73
2024/02/15 07:54:22;;;;;;;6.33;3.00;;;11.50;75.50;;;;;;5030948;28;20185;-72
2024/02/15 07:56:48;;;;;;;7.33;3.30;;;11.60;75.40;;;;;;5031759;28;20178;-70
2024/02/15 07:59:18;;;;;;;10.93;3.63;;;11.60;75.40;;;;;;5033804;28;20432;-72
2024/02/15 08:01:47;;;;;;;6.13;3.37;;;11.80;75.20;;;;;;5030487;28;20849;-72
2024/02/15 08:04:13;;;;;;;5.47;3.03;;;12.00;74.60;;;;;;5021862;28;20424;-73
2024/02/15 08:06:41;;;;;;;7.20;3.10;;;12.10;74.30;;;;;;5027527;28;20514;-73
2024/02/15 08:09:07;;;;;;;7.17;3.70;;;12.00;73.70;;;;;;5022847;28;20612;-71
2024/02/15 08:11:32;;;;;;;5.30;3.50;;;12.10;74.00;;;;;;5028758;28;20488;-72
2024/02/15 08:14:01;;;;;;;4.97;3.53;;;12.20;73.70;;;;;;5026254;28;20949;-72
2024/02/15 08:16:29;;;;;;;6.47;3.47;;;12.30;73.20;;;;;;5031696;28;20185;-73
2024/02/15 08:18:55;;;;;;;7.93;3.23;;;12.40;72.70;;;;;;5031460;28;20435;-73
2024/02/15 08:21:29;;;;;;;9.50;2.53;;;12.50;72.90;;;;;;5027555;28;20517;-72
2024/02/15 08:23:55;;;;;;;3.57;2.50;;;12.50;72.30;;;;;;5020591;28;20290;-72
2024/02/15 08:26:21;;;;;;;5.90;3.03;;;12.40;71.80;;;;;;5028159;28;20455;-73
2024/02/15 08:28:47;;;;;;;6.37;2.87;;;12.50;72.40;;;;;;5031273;28;20419;-73
2024/02/15 08:31:15;;;;;;;4.60;2.43;;;12.70;72.00;;;;;;5034473;28;20455;-72
2024/02/15 08:33:42;;;;;;;6.13;2.63;;;12.80;70.80;;;;;;5025424;28;20209;-72
2024/02/15 08:36:10;;;;;;;3.37;2.80;;;12.60;71.00;;;;;;5030667;28;20420;-72
2024/02/15 08:38:37;;;;;;;5.43;3.10;;;12.50;71.70;;;;;;5030743;28;20936;-72
2024/02/15 08:41:04;;;;;;;4.87;2.20;;;12.60;71.80;;;;;;5022140;28;20473;-72
2024/02/15 08:43:32;;;;;;;10.30;5.10;;;12.70;71.80;;;;;;5022902;28;20860;-72
2024/02/15 08:45:58;;;;;;;4.70;2.83;;;12.90;71.30;;;;;;5028996;28;20799;-72
2024/02/15 08:48:24;;;;;;;7.37;3.97;;;13.00;71.00;;;;;;5030522;28;20416;-72
2024/02/15 08:50:51;;;;;;;6.90;3.93;;;13.20;70.40;;;;;;5022299;28;20462;-71
2024/02/15 08:53:18;;;;;;;7.03;3.60;;;13.30;69.90;;;;;;5026284;28;20606;-71
2024/02/15 08:55:45;;;;;;;6.67;3.60;;;13.30;69.80;;;;;;5032124;28;20428;-73
2024/02/15 08:58:10;;;;;;;6.73;3.90;;;13.20;69.90;;;;;;5040419;28;20432;-72
2024/02/15 09:00:37;;;;;;;5.67;2.30;;;13.30;69.50;;;;;;5029657;28;20474;-72
2024/02/15 09:03:03;;;;;;;3.97;2.10;;;13.30;69.40;;;;;;5024447;28;20189;-72
2024/02/15 09:05:28;;;;;;;4.17;2.00;;;13.40;69.20;;;;;;5029780;28;20529;-72
2024/02/15 09:07:54;;;;;;;3.60;2.00;;;13.50;68.90;;;;;;5030580;28;20213;-72
2024/02/15 09:10:22;;;;;;;6.40;2.33;;;13.50;69.10;;;;;;5029639;28;20213;-72
2024/02/15 09:12:48;;;;;;;4.37;2.17;;;13.40;69.10;;;;;;5028751;28;20943;-73
2024/02/15 09:15:15;;;;;;;4.73;2.47;;;13.60;68.80;;;;;;5026632;28;20519;-73
2024/02/15 09:17:42;;;;;;;4.70;2.40;;;13.40;68.80;;;;;;5028751;28;20862;-73
2024/02/15 09:20:14;;;;;;;4.10;2.37;;;13.50;68.90;;;;;;5029132;28;20462;-72
2024/02/15 09:22:44;;;;;;;3.50;1.87;;;13.50;68.60;;;;;;5027001;28;20430;-73
2024/02/15 09:25:10;;;;;;;2.37;2.17;;;13.40;68.90;;;;;;5024150;28;20503;-73
2024/02/15 09:27:36;;;;;;;5.00;2.30;;;13.40;68.90;;;;;;5029924;28;20511;-72
2024/02/15 09:30:03;;;;;;;4.27;1.90;;;13.40;69.10;;;;;;5029522;28;20968;-72
2024/02/15 09:32:28;;;;;;;3.53;2.37;;;13.40;69.10;;;;;;5020495;28;21245;-72
2024/02/15 09:34:54;;;;;;;4.03;1.87;;;13.50;68.80;;;;;;5025594;28;20452;-72
2024/02/15 09:37:19;;;;;;;5.70;2.40;;;13.50;68.90;;;;;;5030082;28;20178;-73
2024/02/15 09:39:46;;;;;;;5.43;2.77;;;13.60;68.50;;;;;;5029518;28;20192;-72
2024/02/15 09:42:11;;;;;;;3.23;2.20;;;13.60;68.60;;;;;;5017628;28;20571;-72
2024/02/15 09:44:40;;;;;;;3.60;2.43;;;13.70;68.30;;;;;;5025217;28;20412;-71
2024/02/15 09:47:06;;;;;;;5.63;2.17;;;13.80;68.20;;;;;;5030060;28;20661;-73
2024/02/15 09:49:39;;;;;;;7.17;2.23;;;13.80;68.20;;;;;;5030351;28;20421;-72
2024/02/15 09:52:15;;;;;;;3.30;2.00;;;13.90;67.70;;;;;;5016284;28;20472;-72
2024/02/15 09:54:45;;;;;;;3.67;2.10;;;13.90;67.50;;;;;;5023537;28;20446;-72
2024/02/15 09:57:11;;;;;;;4.20;2.50;;;13.80;67.50;;;;;;5029432;28;20424;-72
2024/02/15 09:59:37;;;;;;;6.33;2.50;;;13.90;67.60;;;;;;5028748;28;20892;-72
2024/02/15 10:02:03;;;;;;;3.33;1.73;;;14.00;67.50;;;;;;5017051;28;20876;-72
2024/02/15 10:04:29;;;;;;;2.50;1.93;;;14.10;67.50;;;;;;5025621;28;20440;-71
2024/02/15 10:06:55;;;;;;;4.20;1.97;;;14.20;67.00;;;;;;5028563;28;20211;-71
2024/02/15 10:09:28;;;;;;;2.77;1.50;;;14.20;66.90;;;;;;5027204;28;20205;-72
2024/02/15 10:11:58;;;;;;;6.10;2.03;;;14.30;66.70;;;;;;5014716;28;20336;-72
2024/02/15 10:14:25;;;;;;;3.80;2.20;;;14.30;66.40;;;;;;5020437;28;20933;-72
2024/02/15 10:16:54;;;;;;;3.30;1.97;;;14.30;66.30;;;;;;5027835;28;20421;-71
2024/02/15 10:19:27;;;;;;;4.27;2.20;;;14.30;66.30;;;;;;5025251;28;20800;-71
2024/02/15 10:21:56;;;;;;;4.53;2.40;;;14.40;66.30;;;;;;5022478;28;20469;-71
2024/02/15 10:24:24;;;;;;;4.63;2.63;;;14.30;66.40;;;;;;5029592;28;20424;-72
2024/02/15 10:26:51;;;;;;;6.00;2.53;;;14.20;66.40;;;;;;5029403;28;20462;-72
2024/02/15 10:29:17;;;;;;;5.17;2.20;;;14.30;66.70;;;;;;5029096;28;20434;-71
2024/02/15 10:31:54;;;;;;;5.43;2.50;;;14.50;66.30;;;;;;5025766;28;20482;-73
2024/02/15 10:34:20;;;;;;;8.23;2.23;;;14.50;66.00;;;;;;5017959;28;20413;-72
2024/02/15 10:36:46;;;;;;;4.53;2.80;;;14.70;65.70;;;;;;5029110;28;20412;-72
2024/02/15 10:39:16;;;;;;;4.67;2.30;;;14.70;65.60;;;;;;5029776;28;20495;-73
2024/02/15 10:41:53;;;;;;;4.30;2.07;;;14.80;65.00;;;;;;5024235;28;20566;-73
2024/02/15 10:44:23;;;;;;;4.20;1.80;;;15.00;63.90;;;;;;5021385;28;20677;-72
2024/02/15 10:46:52;;;;;;;5.27;1.63;;;15.20;63.20;;;;;;5029637;28;20556;-72
2024/02/15 10:49:25;;;;;;;6.10;1.77;;;15.60;62.90;;;;;;5026683;28;20526;-72
2024/02/15 10:51:58;;;;;;;5.53;1.97;;;16.00;62.30;;;;;;5024418;28;20972;-72
2024/02/15 10:54:51;;;;;;;4.20;2.00;;;16.50;61.30;;;;;;5018938;28;20961;-72
2024/02/15 10:57:22;;;;;;;3.47;1.70;;;16.90;61.60;;;;;;5021242;28;20439;-71
2024/02/15 10:59:57;;;;;;;3.20;1.73;;;17.30;61.30;;;;;;5028581;28;20412;-73
2024/02/15 11:02:30;;;;;;;5.40;1.80;;;17.80;60.90;;;;;;5014161;28;20558;-72
2024/02/15 11:05:03;;;;;;;9.63;2.10;;;18.40;59.70;;;;;;5024156;28;20412;-72
2024/02/15 11:07:31;;;;;;;3.47;1.60;;;18.60;58.90;;;;;;5026197;28;20424;-72
2024/02/15 11:09:57;;;;;;;1.93;1.40;;;18.80;58.20;;;;;;5025912;28;20488;-74
2024/02/15 11:12:25;;;;;;;5.50;1.80;;;19.00;57.60;;;;;;5019478;28;20484;-72
2024/02/15 11:14:53;;;;;;;3.90;1.63;;;18.90;57.80;;;;;;5027557;28;20458;-72
2024/02/15 11:17:37;;;;;;;3.57;1.80;;;19.10;58.00;;;;;;5023602;28;20785;-73
2024/02/15 11:20:08;;;;;;;2.87;1.60;;;18.80;57.80;;;;;;5027585;28;20443;-72
2024/02/15 11:22:36;;;;;;;3.63;1.83;;;19.00;58.10;;;;;;5028633;28;20476;-72
2024/02/15 11:25:08;;;;;;;7.53;1.50;;;19.30;57.30;;;;;;5032886;28;20442;-72
2024/02/15 11:27:36;;;;;;;2.63;1.30;;;19.50;56.80;;;;;;5034869;28;21155;-72
2024/02/15 11:30:20;;;;;;;4.40;1.80;;;19.80;55.80;;;;;;5034677;28;20445;-73
2024/02/15 11:32:50;;;;;;;7.20;1.60;;;19.80;56.00;;;;;;5025717;28;20444;-73
2024/02/15 11:35:16;;;;;;;3.10;1.60;;;19.70;56.10;;;;;;5031857;28;20425;-73
2024/02/15 11:40:28;;;;;;;3.43;1.47;;;19.70;56.10;;;;;;5029326;28;20443;-74
2024/02/15 11:42:59;;;;;;;3.80;1.53;;;19.90;56.20;;;;;;5029357;28;20418;-71
2024/02/15 11:45:25;;;;;;;4.87;1.70;;;20.30;55.40;;;;;;5032048;28;20830;-73
2024/02/15 11:47:53;;;;;;;2.60;1.57;;;20.60;54.80;;;;;;5031530;28;20915;-72
2024/02/15 11:50:21;;;;;;;2.73;1.70;;;20.30;54.50;;;;;;5029056;28;20411;-73
2024/02/15 11:52:49;;;;;;;9.77;1.90;;;19.60;56.40;;;;;;5028019;28;20416;-73
2024/02/15 11:55:19;;;;;;;4.63;2.50;;;19.40;56.80;;;;;;5026255;28;20444;-73
2024/02/15 11:58:04;;;;;;;6.93;2.00;;;18.90;58.10;;;;;;5021719;28;20420;-72
2024/02/15 12:19:56;;;;;;;2.07;1.30;;;19.00;58.50;;;;;;5030544;28;20418;-73
2024/02/15 12:22:28;;;;;;;4.60;2.00;;;19.00;58.00;;;;;;5017286;28;20481;-72
2024/02/15 12:24:55;;;;;;;1.40;1.20;;;19.10;58.10;;;;;;5026308;28;20443;-72
2024/02/15 12:27:21;;;;;;;2.37;1.27;;;19.00;57.40;;;;;;5031408;28;21260;-72
2024/02/15 12:29:57;;;;;;;3.73;1.73;;;19.00;58.00;;;;;;5028611;28;21009;-72
2024/02/15 12:32:24;;;;;;;5.67;1.97;;;19.20;57.60;;;;;;5023434;28;20478;-71
2024/02/15 12:34:53;;;;;;;7.00;2.03;;;19.10;58.00;;;;;;5024929;28;20475;-72
2024/02/15 12:37:23;;;;;;;2.67;1.97;;;19.20;58.20;;;;;;5031099;28;20990;-72
2024/02/15 12:39:49;;;;;;;1.80;1.43;;;19.30;58.10;;;;;;5030751;28;20422;-72
2024/02/15 12:42:20;;;;;;;4.30;2.17;;;19.10;58.20;;;;;;5020683;28;20587;-73
2024/02/15 12:44:47;;;;;;;6.67;2.10;;;19.00;58.80;;;;;;5028717;28;21236;-73
2024/02/15 12:47:22;;;;;;;3.17;1.67;;;19.00;58.70;;;;;;5030901;28;20420;-72
2024/02/15 12:49:50;;;;;;;2.73;1.77;;;18.90;58.70;;;;;;5030886;28;20427;-72
2024/02/15 12:52:36;;;;;;;4.13;1.53;;;18.90;58.80;;;;;;5019932;28;20470;-72
2024/02/15 12:55:16;;;;;;;3.20;1.60;;;19.10;58.70;;;;;;5030239;28;20434;-73
2024/02/15 12:57:49;;;;;;;7.50;2.10;;;19.10;58.40;;;;;;5015002;28;20439;-71
2024/02/15 13:00:20;;;;;;;4.07;2.40;;;19.20;58.00;;;;;;5026098;28;20429;-73
2024/02/15 13:02:50;;;;;;;3.10;1.90;;;19.30;58.40;;;;;;5021635;28;20467;-74
2024/02/15 13:05:18;;;;;;;2.90;2.00;;;19.30;58.50;;;;;;5029041;28;20428;-72
2024/02/15 13:07:45;;;;;;;7.70;1.90;;;19.20;58.40;;;;;;5030346;28;20526;-71
2024/02/15 13:10:11;;;;;;;7.17;1.80;;;19.20;58.80;;;;;;5028432;28;20931;-73
2024/02/15 13:12:37;;;;;;;3.10;1.93;;;19.20;58.20;;;;;;5028191;28;20443;-74
2024/02/15 13:15:06;;;;;;;6.80;2.30;;;19.20;58.20;;;;;;5021432;28;20910;-73
2024/02/15 13:17:33;;;;;;;3.30;1.70;;;19.10;58.40;;;;;;5029328;28;20426;-74
2024/02/15 13:20:10;;;;;;;2.43;1.53;;;18.80;58.90;;;;;;5029643;28;20477;-72
2024/02/15 13:22:38;;;;;;;2.20;1.47;;;18.80;59.20;;;;;;5021777;28;20510;-74